sensor_id;sensor_type;location;lat;lon;timestamp;P1;durP1;ratioP1;P2;durP2;ratioP2
71558;SDS011;59382;43.852;25.952;2023-03-03T00:02:08;21.02;;;12.13;;
71558;SDS011;59382;43.852;25.952;2023-03-03T00:04:33;22.08;;;12.95;;
71558;SDS011;59382;43.852;25.952;2023-03-03T00:06:59;22.25;;;13.80;;
71558;SDS011;59382;43.852;25.952;2023-03-03T00:09:24;25.38;;;13.18;;
71558;SDS011;59382;43.852;25.952;2023-03-03T00:11:53;24.80;;;13.18;;
71558;SDS011;59382;43.852;25.952;2023-03-03T00:14:30;23.25;;;13.27;;
71558;SDS011;59382;43.852;25.952;2023-03-03T00:16:57;20.45;;;12.43;;
71558;SDS011;59382;43.852;25.952;2023-03-03T00:19:25;23.30;;;12.77;;
71558;SDS011;59382;43.852;25.952;2023-03-03T00:21:51;25.02;;;12.85;;
71558;SDS011;59382;43.852;25.952;2023-03-03T00:27:09;26.42;;;12.75;;
71558;SDS011;59382;43.852;25.952;2023-03-03T00:30:05;39.15;;;12.20;;
71558;SDS011;59382;43.852;25.952;2023-03-03T00:32:48;26.95;;;14.18;;
71558;SDS011;59382;43.852;25.952;2023-03-03T00:35:31;20.35;;;12.07;;
71558;SDS011;59382;43.852;25.952;2023-03-03T00:38:13;24.02;;;13.07;;
71558;SDS011;59382;43.852;25.952;2023-03-03T00:40:43;24.95;;;12.60;;
71558;SDS011;59382;43.852;25.952;2023-03-03T00:43:17;26.90;;;13.93;;
71558;SDS011;59382;43.852;25.952;2023-03-03T00:45:54;27.55;;;13.60;;
71558;SDS011;59382;43.852;25.952;2023-03-03T00:50:55;24.88;;;14.13;;
71558;SDS011;59382;43.852;25.952;2023-03-03T00:53:22;25.27;;;14.77;;
71558;SDS011;59382;43.852;25.952;2023-03-03T00:55:50;27.23;;;13.18;;
71558;SDS011;59382;43.852;25.952;2023-03-03T00:58:17;26.63;;;13.70;;
71558;SDS011;59382;43.852;25.952;2023-03-03T01:00:45;26.52;;;12.57;;
71558;SDS011;59382;43.852;25.952;2023-03-03T01:03:20;24.13;;;13.73;;
71558;SDS011;59382;43.852;25.952;2023-03-03T01:05:47;24.52;;;14.07;;
71558;SDS011;59382;43.852;25.952;2023-03-03T01:08:13;26.02;;;14.00;;
71558;SDS011;59382;43.852;25.952;2023-03-03T01:10:44;24.40;;;14.10;;
71558;SDS011;59382;43.852;25.952;2023-03-03T01:13:15;30.55;;;14.35;;
71558;SDS011;59382;43.852;25.952;2023-03-03T01:15:42;23.23;;;13.23;;
71558;SDS011;59382;43.852;25.952;2023-03-03T01:18:08;26.63;;;13.65;;
71558;SDS011;59382;43.852;25.952;2023-03-03T01:20:35;21.27;;;12.20;;
71558;SDS011;59382;43.852;25.952;2023-03-03T01:23:04;23.25;;;13.88;;
71558;SDS011;59382;43.852;25.952;2023-03-03T01:25:29;26.85;;;13.68;;
71558;SDS011;59382;43.852;25.952;2023-03-03T01:27:55;23.00;;;13.85;;
71558;SDS011;59382;43.852;25.952;2023-03-03T01:30:21;19.92;;;11.27;;
71558;SDS011;59382;43.852;25.952;2023-03-03T01:32:47;23.13;;;13.75;;
71558;SDS011;59382;43.852;25.952;2023-03-03T01:35:12;25.10;;;13.75;;
71558;SDS011;59382;43.852;25.952;2023-03-03T01:37:38;24.48;;;14.45;;
71558;SDS011;59382;43.852;25.952;2023-03-03T01:40:10;22.85;;;12.65;;
71558;SDS011;59382;43.852;25.952;2023-03-03T01:42:42;26.48;;;13.82;;
71558;SDS011;59382;43.852;25.952;2023-03-03T01:45:18;27.38;;;14.50;;
71558;SDS011;59382;43.852;25.952;2023-03-03T01:47:55;26.92;;;14.25;;
71558;SDS011;59382;43.852;25.952;2023-03-03T01:50:33;24.58;;;13.77;;
71558;SDS011;59382;43.852;25.952;2023-03-03T01:53:27;20.00;;;12.13;;
71558;SDS011;59382;43.852;25.952;2023-03-03T01:55:58;25.77;;;14.50;;
71558;SDS011;59382;43.852;25.952;2023-03-03T01:58:28;19.90;;;12.45;;
71558;SDS011;59382;43.852;25.952;2023-03-03T02:01:08;25.05;;;14.35;;
71558;SDS011;59382;43.852;25.952;2023-03-03T02:03:37;23.13;;;13.48;;
71558;SDS011;59382;43.852;25.952;2023-03-03T02:06:05;27.70;;;13.70;;
71558;SDS011;59382;43.852;25.952;2023-03-03T02:11:46;25.00;;;13.98;;
71558;SDS011;59382;43.852;25.952;2023-03-03T02:14:14;28.15;;;15.18;;
71558;SDS011;59382;43.852;25.952;2023-03-03T02:16:40;29.88;;;14.13;;
71558;SDS011;59382;43.852;25.952;2023-03-03T02:19:12;26.67;;;13.77;;
71558;SDS011;59382;43.852;25.952;2023-03-03T02:21:52;33.83;;;14.05;;
71558;SDS011;59382;43.852;25.952;2023-03-03T02:24:23;23.27;;;13.32;;
71558;SDS011;59382;43.852;25.952;2023-03-03T02:26:54;28.63;;;14.60;;
71558;SDS011;59382;43.852;25.952;2023-03-03T02:29:20;25.85;;;13.68;;
71558;SDS011;59382;43.852;25.952;2023-03-03T02:31:45;25.20;;;14.00;;
71558;SDS011;59382;43.852;25.952;2023-03-03T02:34:10;27.70;;;14.50;;
71558;SDS011;59382;43.852;25.952;2023-03-03T02:36:37;28.80;;;13.88;;
71558;SDS011;59382;43.852;25.952;2023-03-03T02:39:06;25.48;;;14.93;;
71558;SDS011;59382;43.852;25.952;2023-03-03T02:44:26;26.00;;;13.68;;
71558;SDS011;59382;43.852;25.952;2023-03-03T02:46:54;25.27;;;13.90;;
71558;SDS011;59382;43.852;25.952;2023-03-03T02:49:28;30.92;;;14.05;;
71558;SDS011;59382;43.852;25.952;2023-03-03T02:51:56;25.42;;;13.27;;
71558;SDS011;59382;43.852;25.952;2023-03-03T02:54:24;29.98;;;14.35;;
71558;SDS011;59382;43.852;25.952;2023-03-03T02:56:51;23.75;;;13.23;;
71558;SDS011;59382;43.852;25.952;2023-03-03T02:59:17;24.55;;;13.57;;
71558;SDS011;59382;43.852;25.952;2023-03-03T03:01:43;27.17;;;13.45;;
71558;SDS011;59382;43.852;25.952;2023-03-03T03:04:09;26.38;;;14.13;;
71558;SDS011;59382;43.852;25.952;2023-03-03T03:06:46;27.25;;;14.45;;
71558;SDS011;59382;43.852;25.952;2023-03-03T03:09:12;29.67;;;15.50;;
71558;SDS011;59382;43.852;25.952;2023-03-03T03:11:39;24.98;;;13.90;;
71558;SDS011;59382;43.852;25.952;2023-03-03T03:14:06;22.95;;;13.65;;
71558;SDS011;59382;43.852;25.952;2023-03-03T03:16:33;27.88;;;14.30;;
71558;SDS011;59382;43.852;25.952;2023-03-03T03:18:59;30.23;;;13.80;;
71558;SDS011;59382;43.852;25.952;2023-03-03T03:21:25;22.17;;;13.50;;
71558;SDS011;59382;43.852;25.952;2023-03-03T03:23:51;30.45;;;14.70;;
71558;SDS011;59382;43.852;25.952;2023-03-03T03:26:16;31.25;;;14.52;;
71558;SDS011;59382;43.852;25.952;2023-03-03T03:28:42;26.38;;;14.27;;
71558;SDS011;59382;43.852;25.952;2023-03-03T03:31:08;26.52;;;14.48;;
71558;SDS011;59382;43.852;25.952;2023-03-03T03:33:34;28.42;;;15.32;;
71558;SDS011;59382;43.852;25.952;2023-03-03T03:36:00;31.35;;;13.85;;
71558;SDS011;59382;43.852;25.952;2023-03-03T03:38:26;27.83;;;14.15;;
71558;SDS011;59382;43.852;25.952;2023-03-03T03:40:53;27.75;;;14.32;;
71558;SDS011;59382;43.852;25.952;2023-03-03T03:43:20;28.20;;;14.45;;
71558;SDS011;59382;43.852;25.952;2023-03-03T03:45:49;25.13;;;13.98;;
71558;SDS011;59382;43.852;25.952;2023-03-03T03:48:14;24.15;;;12.57;;
71558;SDS011;59382;43.852;25.952;2023-03-03T03:50:40;25.83;;;13.65;;
71558;SDS011;59382;43.852;25.952;2023-03-03T03:53:06;23.58;;;13.57;;
71558;SDS011;59382;43.852;25.952;2023-03-03T03:55:32;22.60;;;14.32;;
71558;SDS011;59382;43.852;25.952;2023-03-03T03:57:58;24.45;;;13.95;;
71558;SDS011;59382;43.852;25.952;2023-03-03T04:00:26;24.88;;;13.35;;
71558;SDS011;59382;43.852;25.952;2023-03-03T04:02:51;25.70;;;14.63;;
71558;SDS011;59382;43.852;25.952;2023-03-03T04:05:20;27.55;;;14.65;;
71558;SDS011;59382;43.852;25.952;2023-03-03T04:07:45;26.80;;;14.43;;
71558;SDS011;59382;43.852;25.952;2023-03-03T04:10:11;28.27;;;14.80;;
71558;SDS011;59382;43.852;25.952;2023-03-03T04:12:36;27.85;;;14.27;;
71558;SDS011;59382;43.852;25.952;2023-03-03T04:15:06;31.65;;;14.55;;
71558;SDS011;59382;43.852;25.952;2023-03-03T04:17:33;22.83;;;14.10;;
71558;SDS011;59382;43.852;25.952;2023-03-03T04:19:58;29.67;;;15.35;;
71558;SDS011;59382;43.852;25.952;2023-03-03T04:22:24;27.52;;;15.13;;
71558;SDS011;59382;43.852;25.952;2023-03-03T04:24:50;28.05;;;14.70;;
71558;SDS011;59382;43.852;25.952;2023-03-03T04:27:16;23.88;;;14.10;;
71558;SDS011;59382;43.852;25.952;2023-03-03T04:29:44;24.88;;;13.63;;
71558;SDS011;59382;43.852;25.952;2023-03-03T04:32:09;31.85;;;13.93;;
71558;SDS011;59382;43.852;25.952;2023-03-03T04:34:35;23.58;;;13.32;;
71558;SDS011;59382;43.852;25.952;2023-03-03T04:37:00;23.27;;;13.13;;
71558;SDS011;59382;43.852;25.952;2023-03-03T04:39:27;23.40;;;13.73;;
71558;SDS011;59382;43.852;25.952;2023-03-03T04:41:53;24.45;;;13.88;;
71558;SDS011;59382;43.852;25.952;2023-03-03T04:44:18;29.58;;;14.70;;
71558;SDS011;59382;43.852;25.952;2023-03-03T04:46:44;26.70;;;14.57;;
71558;SDS011;59382;43.852;25.952;2023-03-03T04:49:09;26.85;;;14.38;;
71558;SDS011;59382;43.852;25.952;2023-03-03T04:51:35;25.52;;;14.77;;
71558;SDS011;59382;43.852;25.952;2023-03-03T04:54:01;24.23;;;14.45;;
71558;SDS011;59382;43.852;25.952;2023-03-03T04:56:26;22.75;;;13.93;;
71558;SDS011;59382;43.852;25.952;2023-03-03T04:58:55;33.78;;;14.07;;
71558;SDS011;59382;43.852;25.952;2023-03-03T05:01:21;26.95;;;12.48;;
71558;SDS011;59382;43.852;25.952;2023-03-03T05:03:47;28.95;;;14.63;;
71558;SDS011;59382;43.852;25.952;2023-03-03T05:06:12;27.52;;;15.02;;
71558;SDS011;59382;43.852;25.952;2023-03-03T05:08:41;25.65;;;14.80;;
71558;SDS011;59382;43.852;25.952;2023-03-03T05:11:07;21.95;;;13.18;;
71558;SDS011;59382;43.852;25.952;2023-03-03T05:13:37;24.67;;;14.80;;
71558;SDS011;59382;43.852;25.952;2023-03-03T05:16:02;26.35;;;14.57;;
71558;SDS011;59382;43.852;25.952;2023-03-03T05:18:28;28.23;;;13.88;;
71558;SDS011;59382;43.852;25.952;2023-03-03T05:20:54;23.30;;;14.63;;
71558;SDS011;59382;43.852;25.952;2023-03-03T05:23:22;27.67;;;14.73;;
71558;SDS011;59382;43.852;25.952;2023-03-03T05:25:50;29.58;;;14.25;;
71558;SDS011;59382;43.852;25.952;2023-03-03T05:28:16;24.90;;;14.02;;
71558;SDS011;59382;43.852;25.952;2023-03-03T05:30:45;25.73;;;14.27;;
71558;SDS011;59382;43.852;25.952;2023-03-03T05:33:14;26.52;;;13.98;;
71558;SDS011;59382;43.852;25.952;2023-03-03T05:35:40;25.13;;;15.50;;
71558;SDS011;59382;43.852;25.952;2023-03-03T05:38:09;25.65;;;14.45;;
71558;SDS011;59382;43.852;25.952;2023-03-03T05:40:35;24.63;;;14.95;;
71558;SDS011;59382;43.852;25.952;2023-03-03T05:43:01;33.00;;;16.85;;
71558;SDS011;59382;43.852;25.952;2023-03-03T05:45:27;29.23;;;15.40;;
71558;SDS011;59382;43.852;25.952;2023-03-03T05:47:53;25.70;;;15.23;;
71558;SDS011;59382;43.852;25.952;2023-03-03T05:50:19;32.03;;;14.90;;
71558;SDS011;59382;43.852;25.952;2023-03-03T05:52:49;30.98;;;16.15;;
71558;SDS011;59382;43.852;25.952;2023-03-03T05:55:16;35.95;;;15.05;;
71558;SDS011;59382;43.852;25.952;2023-03-03T05:57:42;28.83;;;16.92;;
71558;SDS011;59382;43.852;25.952;2023-03-03T06:00:07;36.95;;;17.88;;
71558;SDS011;59382;43.852;25.952;2023-03-03T06:02:34;34.97;;;17.38;;
71558;SDS011;59382;43.852;25.952;2023-03-03T06:04:59;46.05;;;19.13;;
71558;SDS011;59382;43.852;25.952;2023-03-03T06:07:28;34.30;;;15.93;;
71558;SDS011;59382;43.852;25.952;2023-03-03T06:09:53;29.60;;;15.25;;
71558;SDS011;59382;43.852;25.952;2023-03-03T06:12:19;24.15;;;14.35;;
71558;SDS011;59382;43.852;25.952;2023-03-03T06:14:44;31.30;;;15.93;;
71558;SDS011;59382;43.852;25.952;2023-03-03T06:17:10;28.70;;;15.77;;
71558;SDS011;59382;43.852;25.952;2023-03-03T06:19:35;27.23;;;15.95;;
71558;SDS011;59382;43.852;25.952;2023-03-03T06:22:04;28.88;;;14.90;;
71558;SDS011;59382;43.852;25.952;2023-03-03T06:24:29;26.50;;;14.00;;
71558;SDS011;59382;43.852;25.952;2023-03-03T06:26:56;32.53;;;15.07;;
71558;SDS011;59382;43.852;25.952;2023-03-03T06:29:22;38.28;;;15.23;;
71558;SDS011;59382;43.852;25.952;2023-03-03T06:31:47;29.35;;;15.88;;
71558;SDS011;59382;43.852;25.952;2023-03-03T06:34:13;30.13;;;16.88;;
71558;SDS011;59382;43.852;25.952;2023-03-03T06:36:38;34.17;;;16.17;;
71558;SDS011;59382;43.852;25.952;2023-03-03T06:39:04;31.20;;;15.13;;
71558;SDS011;59382;43.852;25.952;2023-03-03T06:41:29;28.27;;;15.75;;
71558;SDS011;59382;43.852;25.952;2023-03-03T06:43:55;25.05;;;14.05;;
71558;SDS011;59382;43.852;25.952;2023-03-03T06:46:22;29.75;;;14.73;;
71558;SDS011;59382;43.852;25.952;2023-03-03T06:48:48;36.67;;;15.50;;
71558;SDS011;59382;43.852;25.952;2023-03-03T06:51:19;28.80;;;15.75;;
71558;SDS011;59382;43.852;25.952;2023-03-03T06:53:52;36.47;;;15.00;;
71558;SDS011;59382;43.852;25.952;2023-03-03T06:56:21;34.08;;;15.70;;
71558;SDS011;59382;43.852;25.952;2023-03-03T06:58:48;50.53;;;16.42;;
71558;SDS011;59382;43.852;25.952;2023-03-03T07:01:15;35.47;;;16.92;;
71558;SDS011;59382;43.852;25.952;2023-03-03T07:03:42;37.83;;;21.02;;
71558;SDS011;59382;43.852;25.952;2023-03-03T07:06:14;30.60;;;16.70;;
71558;SDS011;59382;43.852;25.952;2023-03-03T07:08:45;30.65;;;16.45;;
71558;SDS011;59382;43.852;25.952;2023-03-03T07:11:11;30.02;;;16.58;;
71558;SDS011;59382;43.852;25.952;2023-03-03T07:13:43;44.60;;;17.95;;
71558;SDS011;59382;43.852;25.952;2023-03-03T07:16:15;34.90;;;20.25;;
71558;SDS011;59382;43.852;25.952;2023-03-03T07:18:58;37.67;;;17.73;;
71558;SDS011;59382;43.852;25.952;2023-03-03T07:26:50;32.90;;;16.90;;
71558;SDS011;59382;43.852;25.952;2023-03-03T07:29:26;29.42;;;15.68;;
71558;SDS011;59382;43.852;25.952;2023-03-03T07:31:55;30.65;;;15.23;;
71558;SDS011;59382;43.852;25.952;2023-03-03T07:34:45;23.75;;;14.23;;
71558;SDS011;59382;43.852;25.952;2023-03-03T07:39:43;25.10;;;15.07;;
71558;SDS011;59382;43.852;25.952;2023-03-03T07:45:00;30.42;;;13.73;;
71558;SDS011;59382;43.852;25.952;2023-03-03T07:50:18;44.92;;;15.40;;
71558;SDS011;59382;43.852;25.952;2023-03-03T07:52:51;39.85;;;16.55;;
71558;SDS011;59382;43.852;25.952;2023-03-03T08:03:40;31.55;;;15.82;;
71558;SDS011;59382;43.852;25.952;2023-03-03T08:08:53;34.28;;;16.80;;
71558;SDS011;59382;43.852;25.952;2023-03-03T08:11:22;28.23;;;15.23;;
71558;SDS011;59382;43.852;25.952;2023-03-03T08:13:49;30.42;;;15.90;;
71558;SDS011;59382;43.852;25.952;2023-03-03T08:18:44;30.80;;;16.30;;
71558;SDS011;59382;43.852;25.952;2023-03-03T08:21:12;30.65;;;15.93;;
71558;SDS011;59382;43.852;25.952;2023-03-03T08:23:43;28.17;;;15.50;;
71558;SDS011;59382;43.852;25.952;2023-03-03T08:26:09;35.38;;;17.15;;
71558;SDS011;59382;43.852;25.952;2023-03-03T08:28:38;31.80;;;17.02;;
71558;SDS011;59382;43.852;25.952;2023-03-03T08:31:04;38.08;;;16.98;;
71558;SDS011;59382;43.852;25.952;2023-03-03T08:33:29;35.53;;;16.98;;
71558;SDS011;59382;43.852;25.952;2023-03-03T08:35:55;33.80;;;16.45;;
71558;SDS011;59382;43.852;25.952;2023-03-03T08:38:21;30.05;;;16.00;;
71558;SDS011;59382;43.852;25.952;2023-03-03T08:40:49;34.75;;;17.02;;
71558;SDS011;59382;43.852;25.952;2023-03-03T08:43:16;31.60;;;16.70;;
71558;SDS011;59382;43.852;25.952;2023-03-03T08:45:46;30.60;;;15.93;;
71558;SDS011;59382;43.852;25.952;2023-03-03T08:48:13;33.13;;;17.30;;
71558;SDS011;59382;43.852;25.952;2023-03-03T08:50:39;29.42;;;16.90;;
71558;SDS011;59382;43.852;25.952;2023-03-03T08:53:05;33.50;;;16.55;;
71558;SDS011;59382;43.852;25.952;2023-03-03T08:55:32;30.30;;;17.80;;
71558;SDS011;59382;43.852;25.952;2023-03-03T08:57:57;38.85;;;17.80;;
71558;SDS011;59382;43.852;25.952;2023-03-03T09:00:23;27.90;;;16.17;;
71558;SDS011;59382;43.852;25.952;2023-03-03T09:02:50;30.00;;;16.40;;
71558;SDS011;59382;43.852;25.952;2023-03-03T09:05:17;36.13;;;16.65;;
71558;SDS011;59382;43.852;25.952;2023-03-03T09:07:45;31.50;;;18.85;;
71558;SDS011;59382;43.852;25.952;2023-03-03T09:10:12;34.85;;;17.00;;
71558;SDS011;59382;43.852;25.952;2023-03-03T09:12:43;38.13;;;19.60;;
71558;SDS011;59382;43.852;25.952;2023-03-03T09:15:16;43.60;;;17.63;;
71558;SDS011;59382;43.852;25.952;2023-03-03T09:17:45;28.92;;;16.42;;
71558;SDS011;59382;43.852;25.952;2023-03-03T09:22:46;46.25;;;17.42;;
71558;SDS011;59382;43.852;25.952;2023-03-03T09:25:21;36.20;;;16.00;;
71558;SDS011;59382;43.852;25.952;2023-03-03T09:27:55;52.72;;;17.58;;
71558;SDS011;59382;43.852;25.952;2023-03-03T09:32:50;35.63;;;17.30;;
71558;SDS011;59382;43.852;25.952;2023-03-03T09:35:26;32.65;;;17.77;;
71558;SDS011;59382;43.852;25.952;2023-03-03T09:46:43;32.83;;;16.65;;
71558;SDS011;59382;43.852;25.952;2023-03-03T09:49:13;33.15;;;16.00;;
71558;SDS011;59382;43.852;25.952;2023-03-03T09:54:38;44.75;;;16.73;;
71558;SDS011;59382;43.852;25.952;2023-03-03T10:00:27;35.33;;;17.83;;
71558;SDS011;59382;43.852;25.952;2023-03-03T10:08:44;29.40;;;16.27;;
71558;SDS011;59382;43.852;25.952;2023-03-03T10:11:31;32.83;;;17.52;;
71558;SDS011;59382;43.852;25.952;2023-03-03T10:19:38;32.60;;;17.48;;
71558;SDS011;59382;43.852;25.952;2023-03-03T10:35:57;30.60;;;17.13;;
71558;SDS011;59382;43.852;25.952;2023-03-03T10:41:30;34.15;;;18.95;;
71558;SDS011;59382;43.852;25.952;2023-03-03T11:09:11;39.50;;;17.80;;
71558;SDS011;59382;43.852;25.952;2023-03-03T11:14:22;56.22;;;17.38;;
71558;SDS011;59382;43.852;25.952;2023-03-03T11:30:25;33.40;;;16.73;;
71558;SDS011;59382;43.852;25.952;2023-03-03T11:33:10;41.95;;;17.63;;
71558;SDS011;59382;43.852;25.952;2023-03-03T11:38:53;30.23;;;17.40;;
71558;SDS011;59382;43.852;25.952;2023-03-03T11:44:28;34.80;;;19.35;;
71558;SDS011;59382;43.852;25.952;2023-03-03T11:47:15;33.22;;;16.70;;
71558;SDS011;59382;43.852;25.952;2023-03-03T12:09:00;33.72;;;16.95;;
71558;SDS011;59382;43.852;25.952;2023-03-03T12:17:05;28.17;;;17.38;;
71558;SDS011;59382;43.852;25.952;2023-03-03T12:22:34;30.02;;;17.42;;
71558;SDS011;59382;43.852;25.952;2023-03-03T12:25:16;27.02;;;15.20;;
71558;SDS011;59382;43.852;25.952;2023-03-03T12:41:12;36.72;;;16.42;;
71558;SDS011;59382;43.852;25.952;2023-03-03T12:44:25;35.45;;;17.55;;
71558;SDS011;59382;43.852;25.952;2023-03-03T12:49:12;31.40;;;18.20;;
71558;SDS011;59382;43.852;25.952;2023-03-03T12:51:45;29.05;;;16.27;;
71558;SDS011;59382;43.852;25.952;2023-03-03T13:05:26;31.50;;;18.80;;
71558;SDS011;59382;43.852;25.952;2023-03-03T13:07:56;35.53;;;18.27;;
71558;SDS011;59382;43.852;25.952;2023-03-03T13:10:45;45.67;;;20.15;;
71558;SDS011;59382;43.852;25.952;2023-03-03T13:16:04;27.55;;;17.98;;
71558;SDS011;59382;43.852;25.952;2023-03-03T13:24:15;35.10;;;17.85;;
71558;SDS011;59382;43.852;25.952;2023-03-03T13:26:43;36.30;;;18.67;;
71558;SDS011;59382;43.852;25.952;2023-03-03T13:29:22;38.45;;;18.05;;
71558;SDS011;59382;43.852;25.952;2023-03-03T13:32:08;33.42;;;18.73;;
71558;SDS011;59382;43.852;25.952;2023-03-03T13:34:40;33.33;;;19.30;;
71558;SDS011;59382;43.852;25.952;2023-03-03T13:37:21;39.20;;;19.60;;
71558;SDS011;59382;43.852;25.952;2023-03-03T13:42:36;41.55;;;18.77;;
71558;SDS011;59382;43.852;25.952;2023-03-03T13:45:53;33.38;;;18.52;;
71558;SDS011;59382;43.852;25.952;2023-03-03T13:50:55;47.45;;;21.15;;
71558;SDS011;59382;43.852;25.952;2023-03-03T13:55:52;35.60;;;19.98;;
71558;SDS011;59382;43.852;25.952;2023-03-03T13:58:28;34.90;;;18.30;;
71558;SDS011;59382;43.852;25.952;2023-03-03T14:01:00;37.03;;;18.20;;
71558;SDS011;59382;43.852;25.952;2023-03-03T14:03:39;36.03;;;18.52;;
71558;SDS011;59382;43.852;25.952;2023-03-03T14:08:50;32.92;;;19.02;;
71558;SDS011;59382;43.852;25.952;2023-03-03T14:11:45;35.28;;;18.23;;
71558;SDS011;59382;43.852;25.952;2023-03-03T14:17:03;30.38;;;17.90;;
71558;SDS011;59382;43.852;25.952;2023-03-03T14:22:45;36.28;;;18.15;;
71558;SDS011;59382;43.852;25.952;2023-03-03T14:25:18;38.50;;;19.20;;
71558;SDS011;59382;43.852;25.952;2023-03-03T14:40:37;52.55;;;21.13;;
71558;SDS011;59382;43.852;25.952;2023-03-03T14:43:23;41.45;;;20.15;;
71558;SDS011;59382;43.852;25.952;2023-03-03T14:45:51;37.83;;;20.48;;
71558;SDS011;59382;43.852;25.952;2023-03-03T14:48:22;36.33;;;20.15;;
71558;SDS011;59382;43.852;25.952;2023-03-03T14:50:56;39.33;;;20.67;;
71558;SDS011;59382;43.852;25.952;2023-03-03T14:53:38;48.88;;;22.83;;
71558;SDS011;59382;43.852;25.952;2023-03-03T14:56:16;39.28;;;19.38;;
71558;SDS011;59382;43.852;25.952;2023-03-03T14:58:46;33.45;;;21.30;;
71558;SDS011;59382;43.852;25.952;2023-03-03T15:04:09;45.47;;;21.45;;
71558;SDS011;59382;43.852;25.952;2023-03-03T15:06:52;39.90;;;21.63;;
71558;SDS011;59382;43.852;25.952;2023-03-03T15:12:17;39.47;;;20.95;;
71558;SDS011;59382;43.852;25.952;2023-03-03T15:14:46;37.03;;;20.00;;
71558;SDS011;59382;43.852;25.952;2023-03-03T15:25:18;44.85;;;25.20;;
71558;SDS011;59382;43.852;25.952;2023-03-03T15:28:11;37.25;;;21.38;;
71558;SDS011;59382;43.852;25.952;2023-03-03T15:30:43;42.97;;;23.48;;
71558;SDS011;59382;43.852;25.952;2023-03-03T15:33:24;44.97;;;20.30;;
71558;SDS011;59382;43.852;25.952;2023-03-03T15:36:26;32.67;;;19.42;;
71558;SDS011;59382;43.852;25.952;2023-03-03T15:47:42;37.60;;;19.90;;
71558;SDS011;59382;43.852;25.952;2023-03-03T16:03:54;36.38;;;19.05;;
71558;SDS011;59382;43.852;25.952;2023-03-03T16:06:29;36.92;;;19.92;;
71558;SDS011;59382;43.852;25.952;2023-03-03T16:11:35;34.22;;;18.10;;
71558;SDS011;59382;43.852;25.952;2023-03-03T16:19:16;32.80;;;18.33;;
71558;SDS011;59382;43.852;25.952;2023-03-03T16:27:16;35.58;;;18.45;;
71558;SDS011;59382;43.852;25.952;2023-03-03T16:32:33;31.25;;;18.52;;
71558;SDS011;59382;43.852;25.952;2023-03-03T16:38:01;37.50;;;21.08;;
71558;SDS011;59382;43.852;25.952;2023-03-03T16:40:31;33.83;;;20.00;;
71558;SDS011;59382;43.852;25.952;2023-03-03T16:43:05;36.70;;;20.67;;
71558;SDS011;59382;43.852;25.952;2023-03-03T16:45:41;36.47;;;19.80;;
71558;SDS011;59382;43.852;25.952;2023-03-03T16:48:31;33.17;;;18.48;;
71558;SDS011;59382;43.852;25.952;2023-03-03T16:51:11;43.55;;;27.58;;
71558;SDS011;59382;43.852;25.952;2023-03-03T16:54:04;42.05;;;21.42;;
71558;SDS011;59382;43.852;25.952;2023-03-03T16:56:59;35.55;;;19.73;;
71558;SDS011;59382;43.852;25.952;2023-03-03T17:02:11;32.15;;;18.98;;
71558;SDS011;59382;43.852;25.952;2023-03-03T17:05:18;32.88;;;19.75;;
71558;SDS011;59382;43.852;25.952;2023-03-03T17:16:13;42.35;;;22.20;;
71558;SDS011;59382;43.852;25.952;2023-03-03T17:27:04;48.17;;;23.88;;
71558;SDS011;59382;43.852;25.952;2023-03-03T17:35:32;41.40;;;22.45;;
71558;SDS011;59382;43.852;25.952;2023-03-03T17:37:39;44.13;;;22.58;;
71558;SDS011;59382;43.852;25.952;2023-03-03T17:45:32;36.20;;;22.52;;
71558;SDS011;59382;43.852;25.952;2023-03-03T17:53:34;44.85;;;23.95;;
71558;SDS011;59382;43.852;25.952;2023-03-03T17:56:28;39.15;;;23.50;;
71558;SDS011;59382;43.852;25.952;2023-03-03T18:07:28;37.33;;;21.77;;
71558;SDS011;59382;43.852;25.952;2023-03-03T18:10:52;36.47;;;20.90;;
71558;SDS011;59382;43.852;25.952;2023-03-03T18:21:13;41.38;;;22.15;;
71558;SDS011;59382;43.852;25.952;2023-03-03T18:23:46;36.50;;;19.67;;
71558;SDS011;59382;43.852;25.952;2023-03-03T18:26:31;38.80;;;21.55;;
71558;SDS011;59382;43.852;25.952;2023-03-03T18:29:07;38.58;;;20.77;;
71558;SDS011;59382;43.852;25.952;2023-03-03T18:44:40;38.33;;;20.48;;
71558;SDS011;59382;43.852;25.952;2023-03-03T18:47:06;34.20;;;21.38;;
71558;SDS011;59382;43.852;25.952;2023-03-03T18:52:22;39.42;;;22.08;;
71558;SDS011;59382;43.852;25.952;2023-03-03T18:55:04;43.92;;;23.52;;
71558;SDS011;59382;43.852;25.952;2023-03-03T18:58:00;43.70;;;24.42;;
71558;SDS011;59382;43.852;25.952;2023-03-03T19:00:57;42.30;;;23.98;;
71558;SDS011;59382;43.852;25.952;2023-03-03T19:06:04;36.03;;;22.35;;
71558;SDS011;59382;43.852;25.952;2023-03-03T19:08:43;41.42;;;23.58;;
71558;SDS011;59382;43.852;25.952;2023-03-03T19:20:00;47.22;;;22.00;;
71558;SDS011;59382;43.852;25.952;2023-03-03T19:30:20;46.28;;;24.73;;
71558;SDS011;59382;43.852;25.952;2023-03-03T19:35:44;40.65;;;21.83;;
71558;SDS011;59382;43.852;25.952;2023-03-03T19:48:54;42.45;;;22.20;;
71558;SDS011;59382;43.852;25.952;2023-03-03T19:54:08;41.67;;;23.00;;
71558;SDS011;59382;43.852;25.952;2023-03-03T19:56:48;44.50;;;25.23;;
71558;SDS011;59382;43.852;25.952;2023-03-03T19:59:32;42.03;;;22.75;;
71558;SDS011;59382;43.852;25.952;2023-03-03T20:07:43;47.78;;;24.52;;
71558;SDS011;59382;43.852;25.952;2023-03-03T20:16:08;49.38;;;24.05;;
71558;SDS011;59382;43.852;25.952;2023-03-03T20:24:27;41.53;;;23.25;;
71558;SDS011;59382;43.852;25.952;2023-03-03T20:27:19;41.25;;;23.98;;
71558;SDS011;59382;43.852;25.952;2023-03-03T20:35:31;46.60;;;25.67;;
71558;SDS011;59382;43.852;25.952;2023-03-03T20:43:33;45.60;;;25.33;;
71558;SDS011;59382;43.852;25.952;2023-03-03T20:51:45;44.65;;;23.52;;
71558;SDS011;59382;43.852;25.952;2023-03-03T20:57:26;43.67;;;24.50;;
71558;SDS011;59382;43.852;25.952;2023-03-03T21:00:03;42.67;;;22.08;;
71558;SDS011;59382;43.852;25.952;2023-03-03T21:10:18;48.45;;;24.50;;
71558;SDS011;59382;43.852;25.952;2023-03-03T21:12:52;40.72;;;23.35;;
71558;SDS011;59382;43.852;25.952;2023-03-03T21:15:29;38.95;;;23.65;;
71558;SDS011;59382;43.852;25.952;2023-03-03T21:17:58;45.95;;;23.95;;
71558;SDS011;59382;43.852;25.952;2023-03-03T21:20:28;40.90;;;23.38;;
71558;SDS011;59382;43.852;25.952;2023-03-03T21:22:59;44.45;;;24.92;;
71558;SDS011;59382;43.852;25.952;2023-03-03T21:28:14;43.83;;;22.65;;
71558;SDS011;59382;43.852;25.952;2023-03-03T21:36:22;39.10;;;21.52;;
71558;SDS011;59382;43.852;25.952;2023-03-03T21:38:48;39.83;;;22.70;;
71558;SDS011;59382;43.852;25.952;2023-03-03T21:41:15;37.42;;;22.38;;
71558;SDS011;59382;43.852;25.952;2023-03-03T21:43:47;41.40;;;22.55;;
71558;SDS011;59382;43.852;25.952;2023-03-03T21:46:28;41.35;;;23.35;;
71558;SDS011;59382;43.852;25.952;2023-03-03T21:48:53;41.50;;;24.02;;
71558;SDS011;59382;43.852;25.952;2023-03-03T21:51:19;43.95;;;23.67;;